sensor_id;sensor_type;location;lat;lon;timestamp;pressure;altitude;pressure_sealevel;temperature;humidity
79127;BME280;68528;48.814;8.904;2023-04-03T00:00:24;97129.63;;;1.09;75.86
79127;BME280;68528;48.814;8.904;2023-04-03T00:02:49;97125.94;;;1.00;76.14
79127;BME280;68528;48.814;8.904;2023-04-03T00:05:15;97115.72;;;0.97;75.86
79127;BME280;68528;48.814;8.904;2023-04-03T00:07:40;97118.13;;;0.98;76.19
79127;BME280;68528;48.814;8.904;2023-04-03T00:10:06;97106.78;;;1.01;75.84
79127;BME280;68528;48.814;8.904;2023-04-03T00:12:31;97117.09;;;0.94;76.54
79127;BME280;68528;48.814;8.904;2023-04-03T00:14:57;97115.78;;;0.92;76.13
79127;BME280;68528;48.814;8.904;2023-04-03T00:17:22;97108.97;;;0.99;76.06
79127;BME280;68528;48.814;8.904;2023-04-03T00:19:48;97116.94;;;1.09;75.84
79127;BME280;68528;48.814;8.904;2023-04-03T00:22:16;97118.53;;;0.87;75.90
79127;BME280;68528;48.814;8.904;2023-04-03T00:24:42;97119.28;;;0.92;75.99
79127;BME280;68528;48.814;8.904;2023-04-03T00:27:07;97116.53;;;0.97;75.29
79127;BME280;68528;48.814;8.904;2023-04-03T00:29:32;97111.94;;;0.98;75.13
79127;BME280;68528;48.814;8.904;2023-04-03T00:31:58;97113.88;;;0.92;75.21
79127;BME280;68528;48.814;8.904;2023-04-03T00:34:26;97124.19;;;0.85;76.17
79127;BME280;68528;48.814;8.904;2023-04-03T00:36:54;97110.78;;;0.80;76.04
79127;BME280;68528;48.814;8.904;2023-04-03T00:39:24;97115.38;;;0.79;76.05
79127;BME280;68528;48.814;8.904;2023-04-03T00:41:49;97114.06;;;0.72;76.34
79127;BME280;68528;48.814;8.904;2023-04-03T00:44:20;97106.50;;;0.74;76.64
79127;BME280;68528;48.814;8.904;2023-04-03T00:46:46;97109.81;;;0.66;76.44
79127;BME280;68528;48.814;8.904;2023-04-03T00:49:11;97116.75;;;0.72;77.28
79127;BME280;68528;48.814;8.904;2023-04-03T00:51:36;97113.81;;;0.73;76.22
79127;BME280;68528;48.814;8.904;2023-04-03T00:54:05;97112.47;;;0.71;76.45
79127;BME280;68528;48.814;8.904;2023-04-03T00:56:32;97112.47;;;0.71;77.05
79127;BME280;68528;48.814;8.904;2023-04-03T00:59:01;97117.84;;;0.76;76.52
79127;BME280;68528;48.814;8.904;2023-04-03T01:01:29;97104.09;;;0.72;76.91
79127;BME280;68528;48.814;8.904;2023-04-03T01:03:55;97110.84;;;0.70;77.42
79127;BME280;68528;48.814;8.904;2023-04-03T01:06:29;97110.84;;;0.70;76.85
79127;BME280;68528;48.814;8.904;2023-04-03T01:08:57;97107.44;;;0.59;77.05
79127;BME280;68528;48.814;8.904;2023-04-03T01:11:23;97106.59;;;0.64;76.94
79127;BME280;68528;48.814;8.904;2023-04-03T01:13:48;97111.97;;;0.69;77.26
79127;BME280;68528;48.814;8.904;2023-04-03T01:16:16;97108.22;;;0.65;77.40
79127;BME280;68528;48.814;8.904;2023-04-03T01:18:42;97110.41;;;0.63;77.25
79127;BME280;68528;48.814;8.904;2023-04-03T01:24:24;97110.47;;;0.53;76.76
79127;BME280;68528;48.814;8.904;2023-04-03T01:26:52;97108.59;;;0.53;77.44
79127;BME280;68528;48.814;8.904;2023-04-03T01:29:18;97117.00;;;0.47;77.25
79127;BME280;68528;48.814;8.904;2023-04-03T01:31:57;97110.84;;;0.41;77.57
79127;BME280;68528;48.814;8.904;2023-04-03T01:34:24;97110.25;;;0.49;77.92
79127;BME280;68528;48.814;8.904;2023-04-03T01:36:50;97113.22;;;0.48;77.98
79127;BME280;68528;48.814;8.904;2023-04-03T01:39:16;97121.31;;;0.48;77.99
79127;BME280;68528;48.814;8.904;2023-04-03T01:41:42;97120.22;;;0.49;77.68
79127;BME280;68528;48.814;8.904;2023-04-03T01:44:07;97118.56;;;0.53;77.79
79127;BME280;68528;48.814;8.904;2023-04-03T01:46:33;97120.78;;;0.46;77.56
79127;BME280;68528;48.814;8.904;2023-04-03T01:48:58;97115.94;;;0.43;77.93
79127;BME280;68528;48.814;8.904;2023-04-03T01:51:24;97117.00;;;0.47;77.48
79127;BME280;68528;48.814;8.904;2023-04-03T01:53:50;97120.28;;;0.39;78.37
79127;BME280;68528;48.814;8.904;2023-04-03T01:56:17;97119.16;;;0.45;78.08
79127;BME280;68528;48.814;8.904;2023-04-03T01:58:42;97120.22;;;0.49;78.30
79127;BME280;68528;48.814;8.904;2023-04-03T02:01:07;97123.41;;;0.51;77.89
79127;BME280;68528;48.814;8.904;2023-04-03T02:03:33;97124.22;;;0.51;77.09
79127;BME280;68528;48.814;8.904;2023-04-03T02:06:00;97116.22;;;0.46;77.85
79127;BME280;68528;48.814;8.904;2023-04-03T02:08:27;97118.66;;;0.43;78.01
79127;BME280;68528;48.814;8.904;2023-04-03T02:11:06;97119.75;;;0.42;77.91
79127;BME280;68528;48.814;8.904;2023-04-03T02:13:32;97121.84;;;0.45;78.06
79127;BME280;68528;48.814;8.904;2023-04-03T02:15:57;97117.00;;;0.47;78.20
79127;BME280;68528;48.814;8.904;2023-04-03T02:18:24;97128.59;;;0.47;77.88
79127;BME280;68528;48.814;8.904;2023-04-03T02:20:49;97123.47;;;0.46;78.05
79127;BME280;68528;48.814;8.904;2023-04-03T02:23:14;97130.66;;;0.55;78.18
79127;BME280;68528;48.814;8.904;2023-04-03T02:25:40;97132.00;;;0.58;77.70
79127;BME280;68528;48.814;8.904;2023-04-03T02:28:06;97131.47;;;0.56;78.65
79127;BME280;68528;48.814;8.904;2023-04-03T02:30:32;97128.25;;;0.54;78.54
79127;BME280;68528;48.814;8.904;2023-04-03T02:32:58;97129.31;;;0.58;78.64
79127;BME280;68528;48.814;8.904;2023-04-03T02:35:23;97132.50;;;0.60;78.46
79127;BME280;68528;48.814;8.904;2023-04-03T02:37:49;97128.47;;;0.62;77.61
79127;BME280;68528;48.814;8.904;2023-04-03T02:40:14;97126.56;;;0.63;77.76
79127;BME280;68528;48.814;8.904;2023-04-03T02:42:40;97131.44;;;0.61;78.09
79127;BME280;68528;48.814;8.904;2023-04-03T02:45:05;97124.94;;;0.62;78.28
79127;BME280;68528;48.814;8.904;2023-04-03T02:47:31;97116.94;;;0.57;78.42
79127;BME280;68528;48.814;8.904;2023-04-03T02:49:57;97128.81;;;0.51;78.96
79127;BME280;68528;48.814;8.904;2023-04-03T02:52:23;97128.03;;;0.50;78.43
79127;BME280;68528;48.814;8.904;2023-04-03T02:54:52;97127.19;;;0.55;78.44
79127;BME280;68528;48.814;8.904;2023-04-03T02:57:17;97121.31;;;0.48;78.35
79127;BME280;68528;48.814;8.904;2023-04-03T02:59:45;97125.84;;;0.52;78.63
79127;BME280;68528;48.814;8.904;2023-04-03T03:02:17;97124.22;;;0.51;78.65
79127;BME280;68528;48.814;8.904;2023-04-03T03:05:08;97125.28;;;0.55;78.09
79127;BME280;68528;48.814;8.904;2023-04-03T03:07:34;97125.56;;;0.54;78.50
79127;BME280;68528;48.814;8.904;2023-04-03T03:09:59;97120.72;;;0.51;77.88
79127;BME280;68528;48.814;8.904;2023-04-03T03:12:25;97112.13;;;0.49;78.67
79127;BME280;68528;48.814;8.904;2023-04-03T03:14:50;97114.81;;;0.49;77.85
79127;BME280;68528;48.814;8.904;2023-04-03T03:17:16;97111.66;;;0.42;78.99
79127;BME280;68528;48.814;8.904;2023-04-03T03:19:42;97111.66;;;0.42;78.09
79127;BME280;68528;48.814;8.904;2023-04-03T03:22:07;97112.19;;;0.44;78.24
79127;BME280;68528;48.814;8.904;2023-04-03T03:24:33;97110.03;;;0.41;78.00
79127;BME280;68528;48.814;8.904;2023-04-03T03:26:58;97111.38;;;0.43;78.76
79127;BME280;68528;48.814;8.904;2023-04-03T03:29:24;97104.34;;;0.47;76.74
79127;BME280;68528;48.814;8.904;2023-04-03T03:31:49;97106.53;;;0.40;77.34
79127;BME280;68528;48.814;8.904;2023-04-03T03:34:14;97106.22;;;0.47;76.01
79127;BME280;68528;48.814;8.904;2023-04-03T03:36:40;97106.28;;;0.42;76.50
79127;BME280;68528;48.814;8.904;2023-04-03T03:39:07;97113.06;;;0.34;76.97
79127;BME280;68528;48.814;8.904;2023-04-03T03:41:38;97113.31;;;0.38;76.53
79127;BME280;68528;48.814;8.904;2023-04-03T03:44:05;97113.88;;;0.35;76.41
79127;BME280;68528;48.814;8.904;2023-04-03T03:46:31;97107.34;;;0.41;75.60
79127;BME280;68528;48.814;8.904;2023-04-03T03:48:56;97107.06;;;0.42;75.97
79127;BME280;68528;48.814;8.904;2023-04-03T03:51:22;97107.59;;;0.44;74.51
79127;BME280;68528;48.814;8.904;2023-04-03T03:53:47;97105.66;;;0.50;74.51
79127;BME280;68528;48.814;8.904;2023-04-03T03:56:12;97105.66;;;0.50;73.99
79127;BME280;68528;48.814;8.904;2023-04-03T03:58:38;97112.94;;;0.49;73.24
79127;BME280;68528;48.814;8.904;2023-04-03T04:01:04;97117.56;;;0.44;73.49
79127;BME280;68528;48.814;8.904;2023-04-03T04:03:30;97114.28;;;0.47;72.26
79127;BME280;68528;48.814;8.904;2023-04-03T04:05:56;97108.38;;;0.45;71.92
79127;BME280;68528;48.814;8.904;2023-04-03T04:08:22;97113.72;;;0.55;71.42
79127;BME280;68528;48.814;8.904;2023-04-03T04:10:48;97124.50;;;0.55;72.00
79127;BME280;68528;48.814;8.904;2023-04-03T04:13:13;97115.34;;;0.51;72.63
79127;BME280;68528;48.814;8.904;2023-04-03T04:15:39;97115.31;;;0.56;71.98
79127;BME280;68528;48.814;8.904;2023-04-03T04:18:07;97117.16;;;0.60;72.13
79127;BME280;68528;48.814;8.904;2023-04-03T04:20:33;97113.41;;;0.56;71.78
79127;BME280;68528;48.814;8.904;2023-04-03T04:22:58;97119.38;;;0.53;71.52
79127;BME280;68528;48.814;8.904;2023-04-03T04:25:24;97119.03;;;0.60;72.01
79127;BME280;68528;48.814;8.904;2023-04-03T04:28:22;97120.88;;;0.64;71.38
79127;BME280;68528;48.814;8.904;2023-04-03T04:30:48;97112.56;;;0.61;71.34
79127;BME280;68528;48.814;8.904;2023-04-03T04:33:39;97116.63;;;0.58;71.62
79127;BME280;68528;48.814;8.904;2023-04-03T04:36:05;97121.72;;;0.60;71.50
79127;BME280;68528;48.814;8.904;2023-04-03T04:38:30;97118.75;;;0.61;72.48
79127;BME280;68528;48.814;8.904;2023-04-03T04:41:19;97110.63;;;0.66;72.40
79127;BME280;68528;48.814;8.904;2023-04-03T04:43:47;97117.97;;;0.61;71.83
79127;BME280;68528;48.814;8.904;2023-04-03T04:46:12;97117.91;;;0.66;71.27
79127;BME280;68528;48.814;8.904;2023-04-03T04:48:38;97111.78;;;0.55;71.23
79127;BME280;68528;48.814;8.904;2023-04-03T04:51:03;97119.88;;;0.55;71.39
79127;BME280;68528;48.814;8.904;2023-04-03T04:53:29;97114.16;;;0.62;71.74
79127;BME280;68528;48.814;8.904;2023-04-03T04:55:55;97126.59;;;0.58;71.14
79127;BME280;68528;48.814;8.904;2023-04-03T04:58:20;97121.44;;;0.61;71.34
79127;BME280;68528;48.814;8.904;2023-04-03T05:00:46;97123.34;;;0.61;70.08
79127;BME280;68528;48.814;8.904;2023-04-03T05:03:35;97120.16;;;0.59;70.95
79127;BME280;68528;48.814;8.904;2023-04-03T05:06:01;97128.56;;;0.52;70.49
79127;BME280;68528;48.814;8.904;2023-04-03T05:08:26;97136.34;;;0.54;70.91
79127;BME280;68528;48.814;8.904;2023-04-03T05:10:52;97134.19;;;0.51;69.89
79127;BME280;68528;48.814;8.904;2023-04-03T05:13:18;97134.41;;;0.59;69.83
79127;BME280;68528;48.814;8.904;2023-04-03T05:15:45;97139.53;;;0.61;68.11
79127;BME280;68528;48.814;8.904;2023-04-03T05:18:11;97132.16;;;0.71;67.93
79127;BME280;68528;48.814;8.904;2023-04-03T05:20:39;97141.13;;;0.62;66.48
79127;BME280;68528;48.814;8.904;2023-04-03T05:23:05;97137.03;;;0.69;67.33
79127;BME280;68528;48.814;8.904;2023-04-03T05:25:33;97133.47;;;0.74;66.56
79127;BME280;68528;48.814;8.904;2023-04-03T05:31:17;97142.63;;;0.78;66.73
79127;BME280;68528;48.814;8.904;2023-04-03T05:33:43;97139.41;;;0.76;65.65
79127;BME280;68528;48.814;8.904;2023-04-03T05:36:08;97135.63;;;0.72;65.81
79127;BME280;68528;48.814;8.904;2023-04-03T05:38:34;97146.34;;;0.82;66.82
79127;BME280;68528;48.814;8.904;2023-04-03T05:40:59;97149.56;;;0.84;67.21
79127;BME280;68528;48.814;8.904;2023-04-03T05:43:25;97157.13;;;0.82;68.20
79127;BME280;68528;48.814;8.904;2023-04-03T05:45:53;97152.41;;;0.64;69.80
79127;BME280;68528;48.814;8.904;2023-04-03T05:48:18;97161.00;;;0.71;70.89
79127;BME280;68528;48.814;8.904;2023-04-03T05:51:07;97158.50;;;0.79;70.91
79127;BME280;68528;48.814;8.904;2023-04-03T05:53:38;97167.00;;;0.92;70.79
79127;BME280;68528;48.814;8.904;2023-04-03T05:56:04;97161.50;;;0.73;71.20
79127;BME280;68528;48.814;8.904;2023-04-03T05:58:29;97166.88;;;0.78;70.93
79127;BME280;68528;48.814;8.904;2023-04-03T06:00:55;97157.13;;;0.82;70.66
79127;BME280;68528;48.814;8.904;2023-04-03T06:03:20;97150.63;;;0.83;71.51
79127;BME280;68528;48.814;8.904;2023-04-03T06:06:04;97166.72;;;0.93;71.01
79127;BME280;68528;48.814;8.904;2023-04-03T06:08:30;97159.69;;;0.97;70.57
79127;BME280;68528;48.814;8.904;2023-04-03T06:11:05;97169.56;;;1.07;70.28
79127;BME280;68528;48.814;8.904;2023-04-03T06:13:35;97162.91;;;0.99;69.56
79127;BME280;68528;48.814;8.904;2023-04-03T06:16:05;97166.78;;;0.88;70.63
79127;BME280;68528;48.814;8.904;2023-04-03T06:18:30;97162.38;;;0.97;70.06
79127;BME280;68528;48.814;8.904;2023-04-03T06:21:24;97173.19;;;0.97;69.64
79127;BME280;68528;48.814;8.904;2023-04-03T06:23:49;97169.66;;;0.97;69.77
79127;BME280;68528;48.814;8.904;2023-04-03T06:26:24;97161.28;;;0.98;70.32
79127;BME280;68528;48.814;8.904;2023-04-03T06:28:50;97175.78;;;1.07;68.30
79127;BME280;68528;48.814;8.904;2023-04-03T06:31:21;97170.59;;;1.11;68.66
79127;BME280;68528;48.814;8.904;2023-04-03T06:33:46;97171.19;;;1.08;69.92
79127;BME280;68528;48.814;8.904;2023-04-03T06:36:12;97172.09;;;1.22;69.08
79127;BME280;68528;48.814;8.904;2023-04-03T06:38:57;97169.06;;;1.28;69.70
79127;BME280;68528;48.814;8.904;2023-04-03T06:41:23;97165.75;;;1.36;69.50
79127;BME280;68528;48.814;8.904;2023-04-03T06:44:17;97170.91;;;1.33;68.44
79127;BME280;68528;48.814;8.904;2023-04-03T06:46:46;97176.56;;;1.31;68.93
79127;BME280;68528;48.814;8.904;2023-04-03T06:49:21;97189.22;;;1.36;69.30
79127;BME280;68528;48.814;8.904;2023-04-03T06:52:02;97185.25;;;1.28;69.27
79127;BME280;68528;48.814;8.904;2023-04-03T06:54:39;97169.25;;;1.37;69.87
79127;BME280;68528;48.814;8.904;2023-04-03T06:57:26;97183.34;;;1.52;68.63
79127;BME280;68528;48.814;8.904;2023-04-03T06:59:53;97186.22;;;1.37;68.73
79127;BME280;68528;48.814;8.904;2023-04-03T07:02:24;97177.72;;;1.25;69.48
79127;BME280;68528;48.814;8.904;2023-04-03T07:05:09;97187.28;;;1.41;69.39
79127;BME280;68528;48.814;8.904;2023-04-03T07:07:47;97186.47;;;1.41;68.90
79127;BME280;68528;48.814;8.904;2023-04-03T07:10:14;97194.28;;;1.42;70.30
79127;BME280;68528;48.814;8.904;2023-04-03T07:12:40;97196.81;;;1.57;69.05
79127;BME280;68528;48.814;8.904;2023-04-03T07:15:07;97190.94;;;1.50;69.85
79127;BME280;68528;48.814;8.904;2023-04-03T07:17:33;97189.28;;;1.54;70.12
79127;BME280;68528;48.814;8.904;2023-04-03T07:20:19;97196.94;;;1.47;69.43
79127;BME280;68528;48.814;8.904;2023-04-03T07:25:52;97200.34;;;1.29;69.53
79127;BME280;68528;48.814;8.904;2023-04-03T07:28:59;97204.28;;;1.66;68.42
79127;BME280;68528;48.814;8.904;2023-04-03T07:32:15;97217.66;;;1.52;69.10
79127;BME280;68528;48.814;8.904;2023-04-03T07:37:34;97199.66;;;1.90;69.39
79127;BME280;68528;48.814;8.904;2023-04-03T07:40:10;97206.38;;;1.92;68.20
79127;BME280;68528;48.814;8.904;2023-04-03T07:42:58;97207.03;;;2.03;67.64
79127;BME280;68528;48.814;8.904;2023-04-03T07:45:48;97209.31;;;1.72;68.19
79127;BME280;68528;48.814;8.904;2023-04-03T07:48:19;97222.69;;;1.82;68.63
79127;BME280;68528;48.814;8.904;2023-04-03T07:50:44;97208.72;;;1.99;67.80
79127;BME280;68528;48.814;8.904;2023-04-03T07:53:10;97208.25;;;2.15;66.92
79127;BME280;68528;48.814;8.904;2023-04-03T07:55:39;97223.63;;;1.73;67.53
79127;BME280;68528;48.814;8.904;2023-04-03T07:58:17;97219.78;;;1.79;67.91
79127;BME280;68528;48.814;8.904;2023-04-03T08:03:50;97225.69;;;2.23;66.85
79127;BME280;68528;48.814;8.904;2023-04-03T08:06:22;97232.97;;;2.04;68.42
79127;BME280;68528;48.814;8.904;2023-04-03T08:08:47;97234.78;;;2.32;67.02
79127;BME280;68528;48.814;8.904;2023-04-03T08:11:13;97239.50;;;1.79;67.61
79127;BME280;68528;48.814;8.904;2023-04-03T08:13:38;97233.47;;;1.87;66.88
79127;BME280;68528;48.814;8.904;2023-04-03T08:16:32;97231.53;;;2.11;67.75
79127;BME280;68528;48.814;8.904;2023-04-03T08:19:03;97232.03;;;2.13;66.95
79127;BME280;68528;48.814;8.904;2023-04-03T08:21:34;97231.09;;;2.23;67.55
79127;BME280;68528;48.814;8.904;2023-04-03T08:24:02;97235.66;;;2.65;66.15
79127;BME280;68528;48.814;8.904;2023-04-03T08:26:28;97231.47;;;2.54;65.91
79127;BME280;68528;48.814;8.904;2023-04-03T08:29:35;97223.31;;;2.40;64.63
79127;BME280;68528;48.814;8.904;2023-04-03T08:35:10;97236.16;;;3.17;65.81
79127;BME280;68528;48.814;8.904;2023-04-03T08:37:40;97231.75;;;3.22;66.24
79127;BME280;68528;48.814;8.904;2023-04-03T08:40:28;97230.31;;;3.10;63.76
79127;BME280;68528;48.814;8.904;2023-04-03T08:46:15;97231.84;;;2.84;64.05
79127;BME280;68528;48.814;8.904;2023-04-03T08:48:43;97230.78;;;3.45;61.30
79127;BME280;68528;48.814;8.904;2023-04-03T08:51:32;97229.59;;;4.32;59.03
79127;BME280;68528;48.814;8.904;2023-04-03T08:54:23;97228.31;;;4.65;57.55
79127;BME280;68528;48.814;8.904;2023-04-03T08:56:54;97260.25;;;4.19;59.60
79127;BME280;68528;48.814;8.904;2023-04-03T09:02:40;97246.09;;;3.95;61.88
79127;BME280;68528;48.814;8.904;2023-04-03T09:05:12;97252.13;;;3.92;60.60
79127;BME280;68528;48.814;8.904;2023-04-03T09:08:04;97244.28;;;4.04;61.44
79127;BME280;68528;48.814;8.904;2023-04-03T09:11:05;97242.16;;;4.15;60.88
79127;BME280;68528;48.814;8.904;2023-04-03T09:13:54;97239.69;;;4.05;60.52
79127;BME280;68528;48.814;8.904;2023-04-03T09:19:57;97243.25;;;4.41;61.01
79127;BME280;68528;48.814;8.904;2023-04-03T09:22:25;97248.09;;;3.89;60.77
79127;BME280;68528;48.814;8.904;2023-04-03T09:25:02;97243.88;;;3.97;60.97
79127;BME280;68528;48.814;8.904;2023-04-03T09:27:31;97228.22;;;3.94;60.66
79127;BME280;68528;48.814;8.904;2023-04-03T09:29:57;97245.91;;;4.05;59.19
79127;BME280;68528;48.814;8.904;2023-04-03T09:32:34;97234.06;;;3.87;59.89
79127;BME280;68528;48.814;8.904;2023-04-03T09:35:41;97253.22;;;3.91;60.27
79127;BME280;68528;48.814;8.904;2023-04-03T09:38:25;97246.41;;;3.93;59.83
79127;BME280;68528;48.814;8.904;2023-04-03T09:41:16;97249.91;;;4.35;59.55
79127;BME280;68528;48.814;8.904;2023-04-03T09:43:53;97244.66;;;4.25;59.52
79127;BME280;68528;48.814;8.904;2023-04-03T09:49:41;97255.53;;;3.97;59.30
79127;BME280;68528;48.814;8.904;2023-04-03T09:52:31;97251.44;;;3.86;58.79
79127;BME280;68528;48.814;8.904;2023-04-03T09:55:41;97238.81;;;3.36;59.45
79127;BME280;68528;48.814;8.904;2023-04-03T10:01:35;97241.50;;;3.82;60.48
79127;BME280;68528;48.814;8.904;2023-04-03T10:07:34;97238.88;;;4.04;59.95
79127;BME280;68528;48.814;8.904;2023-04-03T10:10:19;97224.09;;;4.10;58.54
79127;BME280;68528;48.814;8.904;2023-04-03T10:13:12;97231.53;;;4.18;56.88
79127;BME280;68528;48.814;8.904;2023-04-03T10:19:21;97235.25;;;4.22;54.89
79127;BME280;68528;48.814;8.904;2023-04-03T10:24:44;97224.03;;;3.61;54.64
79127;BME280;68528;48.814;8.904;2023-04-03T10:27:53;97219.19;;;4.12;52.14
79127;BME280;68528;48.814;8.904;2023-04-03T10:33:34;97217.50;;;3.89;54.35
79127;BME280;68528;48.814;8.904;2023-04-03T10:36:38;97234.44;;;3.81;55.19
79127;BME280;68528;48.814;8.904;2023-04-03T10:47:52;97219.59;;;3.78;52.65
79127;BME280;68528;48.814;8.904;2023-04-03T10:53:57;97234.25;;;4.05;54.22
79127;BME280;68528;48.814;8.904;2023-04-03T10:56:48;97232.84;;;4.07;57.94
79127;BME280;68528;48.814;8.904;2023-04-03T10:59:53;97237.56;;;3.88;59.16
79127;BME280;68528;48.814;8.904;2023-04-03T11:02:30;97234.06;;;3.87;59.02
79127;BME280;68528;48.814;8.904;2023-04-03T11:07:56;97233.13;;;3.78;59.15
79127;BME280;68528;48.814;8.904;2023-04-03T11:13:33;97234.22;;;3.64;59.94
79127;BME280;68528;48.814;8.904;2023-04-03T11:26:21;97231.25;;;3.92;57.36
79127;BME280;68528;48.814;8.904;2023-04-03T11:28:56;97218.38;;;3.84;56.91
79127;BME280;68528;48.814;8.904;2023-04-03T11:36:58;97218.88;;;3.46;57.83
79127;BME280;68528;48.814;8.904;2023-04-03T11:43:07;97222.91;;;3.89;59.10
79127;BME280;68528;48.814;8.904;2023-04-03T11:52:10;97214.91;;;3.84;58.06
79127;BME280;68528;48.814;8.904;2023-04-03T11:54:43;97216.00;;;3.83;57.41
79127;BME280;68528;48.814;8.904;2023-04-03T11:57:44;97207.34;;;3.81;56.80
79127;BME280;68528;48.814;8.904;2023-04-03T12:14:03;97184.97;;;3.89;56.50
79127;BME280;68528;48.814;8.904;2023-04-03T12:50:25;97181.16;;;4.39;49.83
79127;BME280;68528;48.814;8.904;2023-04-03T12:53:35;97160.13;;;4.81;48.98
79127;BME280;68528;48.814;8.904;2023-04-03T12:56:23;97170.91;;;5.16;48.84
79127;BME280;68528;48.814;8.904;2023-04-03T12:58:51;97171.31;;;5.32;47.33
79127;BME280;68528;48.814;8.904;2023-04-03T13:01:21;97172.84;;;4.94;45.17
79127;BME280;68528;48.814;8.904;2023-04-03T13:03:51;97168.78;;;5.13;46.34
79127;BME280;68528;48.814;8.904;2023-04-03T13:06:46;97179.16;;;5.11;44.60
79127;BME280;68528;48.814;8.904;2023-04-03T13:09:31;97180.00;;;4.90;45.08
79127;BME280;68528;48.814;8.904;2023-04-03T13:12:01;97170.41;;;4.92;47.58
79127;BME280;68528;48.814;8.904;2023-04-03T13:14:27;97168.16;;;4.86;47.78
79127;BME280;68528;48.814;8.904;2023-04-03T13:17:03;97182.59;;;4.72;47.18
79127;BME280;68528;48.814;8.904;2023-04-03T13:19:29;97169.88;;;4.59;47.36
79127;BME280;68528;48.814;8.904;2023-04-03T13:22:31;97168.88;;;4.77;46.79
79127;BME280;68528;48.814;8.904;2023-04-03T13:25:02;97165.25;;;4.60;47.22
79127;BME280;68528;48.814;8.904;2023-04-03T13:27:31;97168.16;;;4.86;47.76
79127;BME280;68528;48.814;8.904;2023-04-03T13:29:59;97159.34;;;5.02;47.59
79127;BME280;68528;48.814;8.904;2023-04-03T13:32:30;97161.47;;;4.69;48.24
79127;BME280;68528;48.814;8.904;2023-04-03T13:34:59;97164.34;;;4.64;48.85
79127;BME280;68528;48.814;8.904;2023-04-03T13:38:03;97159.69;;;4.43;49.59
79127;BME280;68528;48.814;8.904;2023-04-03T13:40:53;97170.72;;;4.46;48.21
79127;BME280;68528;48.814;8.904;2023-04-03T13:43:27;97146.88;;;4.21;48.34
79127;BME280;68528;48.814;8.904;2023-04-03T13:48:48;97169.78;;;4.15;48.30
79127;BME280;68528;48.814;8.904;2023-04-03T13:53:55;97163.59;;;4.01;48.75
79127;BME280;68528;48.814;8.904;2023-04-03T13:57:17;97161.56;;;4.07;50.18
79127;BME280;68528;48.814;8.904;2023-04-03T13:59:43;97165.97;;;4.16;49.47
79127;BME280;68528;48.814;8.904;2023-04-03T14:02:31;97166.91;;;4.47;50.06
79127;BME280;68528;48.814;8.904;2023-04-03T14:05:01;97148.41;;;4.49;49.65
79127;BME280;68528;48.814;8.904;2023-04-03T14:07:47;97163.16;;;4.79;49.10
79127;BME280;68528;48.814;8.904;2023-04-03T14:13:34;97150.09;;;4.23;47.77
79127;BME280;68528;48.814;8.904;2023-04-03T14:16:03;97155.69;;;4.27;48.61
79127;BME280;68528;48.814;8.904;2023-04-03T14:18:30;97156.00;;;4.61;45.80
79127;BME280;68528;48.814;8.904;2023-04-03T14:20:57;97151.56;;;4.43;45.53
79127;BME280;68528;48.814;8.904;2023-04-03T14:23:24;97153.16;;;4.66;46.07
79127;BME280;68528;48.814;8.904;2023-04-03T14:26:10;97136.47;;;4.72;44.91
79127;BME280;68528;48.814;8.904;2023-04-03T14:28:52;97159.75;;;4.73;47.03
79127;BME280;68528;48.814;8.904;2023-04-03T14:31:19;97146.19;;;4.73;45.85
79127;BME280;68528;48.814;8.904;2023-04-03T14:34:11;97147.84;;;4.61;46.53
79127;BME280;68528;48.814;8.904;2023-04-03T14:37:02;97150.81;;;4.15;47.73
79127;BME280;68528;48.814;8.904;2023-04-03T14:39:59;97154.69;;;4.36;47.84
79127;BME280;68528;48.814;8.904;2023-04-03T14:42:36;97141.38;;;4.13;47.39
79127;BME280;68528;48.814;8.904;2023-04-03T14:45:27;97151.63;;;4.16;47.97
79127;BME280;68528;48.814;8.904;2023-04-03T14:48:03;97134.47;;;4.20;48.89
79127;BME280;68528;48.814;8.904;2023-04-03T14:50:28;97141.22;;;4.31;48.81
79127;BME280;68528;48.814;8.904;2023-04-03T14:52:56;97132.34;;;4.39;48.34
79127;BME280;68528;48.814;8.904;2023-04-03T14:55:24;97139.34;;;4.18;46.83
79127;BME280;68528;48.814;8.904;2023-04-03T14:57:52;97133.97;;;4.40;46.90
79127;BME280;68528;48.814;8.904;2023-04-03T15:00:23;97139.66;;;4.52;47.92
79127;BME280;68528;48.814;8.904;2023-04-03T15:03:17;97131.91;;;4.59;47.01
79127;BME280;68528;48.814;8.904;2023-04-03T15:05:46;97138.69;;;4.70;47.67
79127;BME280;68528;48.814;8.904;2023-04-03T15:08:21;97131.53;;;4.74;44.79
79127;BME280;68528;48.814;8.904;2023-04-03T15:10:48;97128.16;;;4.33;45.20
79127;BME280;68528;48.814;8.904;2023-04-03T15:13:14;97121.16;;;4.32;45.46
79127;BME280;68528;48.814;8.904;2023-04-03T15:15:40;97129.78;;;4.34;46.93
79127;BME280;68528;48.814;8.904;2023-04-03T15:21:50;97134.72;;;4.54;48.15
79127;BME280;68528;48.814;8.904;2023-04-03T15:24:16;97130.66;;;4.43;48.75
79127;BME280;68528;48.814;8.904;2023-04-03T15:26:42;97130.72;;;4.52;48.66
79127;BME280;68528;48.814;8.904;2023-04-03T15:29:12;97132.81;;;4.55;47.58
79127;BME280;68528;48.814;8.904;2023-04-03T15:31:38;97136.63;;;4.32;47.05
79127;BME280;68528;48.814;8.904;2023-04-03T15:34:03;97130.09;;;4.33;47.84
79127;BME280;68528;48.814;8.904;2023-04-03T15:36:30;97128.72;;;4.44;48.41
79127;BME280;68528;48.814;8.904;2023-04-03T15:42:03;97131.38;;;4.35;47.97
79127;BME280;68528;48.814;8.904;2023-04-03T15:44:32;97127.75;;;4.40;46.32
79127;BME280;68528;48.814;8.904;2023-04-03T15:47:01;97127.00;;;4.26;46.14
79127;BME280;68528;48.814;8.904;2023-04-03T15:49:28;97121.88;;;4.24;45.09
79127;BME280;68528;48.814;8.904;2023-04-03T15:51:56;97124.13;;;4.44;47.81
79127;BME280;68528;48.814;8.904;2023-04-03T15:54:22;97123.25;;;4.57;46.02
79127;BME280;68528;48.814;8.904;2023-04-03T15:56:59;97120.94;;;4.64;46.32
79127;BME280;68528;48.814;8.904;2023-04-03T15:59:25;97131.25;;;4.40;45.17
79127;BME280;68528;48.814;8.904;2023-04-03T16:01:51;97119.75;;;3.99;45.19
79127;BME280;68528;48.814;8.904;2023-04-03T16:04:18;97147.69;;;4.22;47.24
79127;BME280;68528;48.814;8.904;2023-04-03T16:07:06;97134.56;;;4.15;45.24
79127;BME280;68528;48.814;8.904;2023-04-03T16:09:33;97127.75;;;4.04;45.32
79127;BME280;68528;48.814;8.904;2023-04-03T16:11:59;97126.03;;;4.08;45.67